sensor_id;sensor_type;location;lat;lon;timestamp;temperature;humidity
85562;DHT22;76005;50.882;3.882;2024-01-25T00:01:29;9.60;76.80
85562;DHT22;76005;50.882;3.882;2024-01-25T00:03:55;9.60;76.60
85562;DHT22;76005;50.882;3.882;2024-01-25T00:06:21;9.60;76.60
85562;DHT22;76005;50.882;3.882;2024-01-25T00:08:46;9.60;76.50
85562;DHT22;76005;50.882;3.882;2024-01-25T00:11:12;9.60;76.30
85562;DHT22;76005;50.882;3.882;2024-01-25T00:13:38;9.60;76.10
85562;DHT22;76005;50.882;3.882;2024-01-25T00:16:05;9.60;76.10
85562;DHT22;76005;50.882;3.882;2024-01-25T00:18:30;9.50;76.30
85562;DHT22;76005;50.882;3.882;2024-01-25T00:20:56;9.50;76.10
85562;DHT22;76005;50.882;3.882;2024-01-25T00:23:22;9.40;76.30
85562;DHT22;76005;50.882;3.882;2024-01-25T00:25:47;9.40;76.20
85562;DHT22;76005;50.882;3.882;2024-01-25T00:28:13;9.40;76.30
85562;DHT22;76005;50.882;3.882;2024-01-25T00:30:39;9.30;76.20
85562;DHT22;76005;50.882;3.882;2024-01-25T00:33:05;9.40;76.10
85562;DHT22;76005;50.882;3.882;2024-01-25T00:35:32;9.30;76.00
85562;DHT22;76005;50.882;3.882;2024-01-25T00:37:58;9.30;75.90
85562;DHT22;76005;50.882;3.882;2024-01-25T00:40:23;9.30;75.90
85562;DHT22;76005;50.882;3.882;2024-01-25T00:42:49;9.20;76.00
85562;DHT22;76005;50.882;3.882;2024-01-25T00:45:19;9.20;76.00
85562;DHT22;76005;50.882;3.882;2024-01-25T00:47:46;9.20;76.00
85562;DHT22;76005;50.882;3.882;2024-01-25T00:50:12;9.20;75.90
85562;DHT22;76005;50.882;3.882;2024-01-25T00:52:38;9.20;76.00
85562;DHT22;76005;50.882;3.882;2024-01-25T00:55:06;9.20;75.80
85562;DHT22;76005;50.882;3.882;2024-01-25T00:57:32;9.20;75.60
85562;DHT22;76005;50.882;3.882;2024-01-25T00:59:59;9.20;75.70
85562;DHT22;76005;50.882;3.882;2024-01-25T01:02:27;9.20;75.70
85562;DHT22;76005;50.882;3.882;2024-01-25T01:04:57;9.20;75.50
85562;DHT22;76005;50.882;3.882;2024-01-25T01:07:23;9.10;75.70
85562;DHT22;76005;50.882;3.882;2024-01-25T01:09:49;9.00;76.10
85562;DHT22;76005;50.882;3.882;2024-01-25T01:12:14;8.80;76.60
85562;DHT22;76005;50.882;3.882;2024-01-25T01:14:40;8.80;76.60
85562;DHT22;76005;50.882;3.882;2024-01-25T01:17:06;8.90;76.60
85562;DHT22;76005;50.882;3.882;2024-01-25T01:19:31;8.90;76.40
85562;DHT22;76005;50.882;3.882;2024-01-25T01:21:57;8.90;76.10
85562;DHT22;76005;50.882;3.882;2024-01-25T01:24:23;8.90;76.00
85562;DHT22;76005;50.882;3.882;2024-01-25T01:26:48;8.90;75.90
85562;DHT22;76005;50.882;3.882;2024-01-25T01:29:16;8.90;76.00
85562;DHT22;76005;50.882;3.882;2024-01-25T01:31:41;8.80;76.20
85562;DHT22;76005;50.882;3.882;2024-01-25T01:34:07;8.70;76.50
85562;DHT22;76005;50.882;3.882;2024-01-25T01:36:33;8.70;76.50
85562;DHT22;76005;50.882;3.882;2024-01-25T01:38:59;8.70;76.10
85562;DHT22;76005;50.882;3.882;2024-01-25T01:41:25;8.70;76.00
85562;DHT22;76005;50.882;3.882;2024-01-25T01:43:54;8.70;75.80
85562;DHT22;76005;50.882;3.882;2024-01-25T01:46:34;8.70;75.70
85562;DHT22;76005;50.882;3.882;2024-01-25T01:49:13;8.70;75.50
85562;DHT22;76005;50.882;3.882;2024-01-25T01:51:42;8.60;75.50
85562;DHT22;76005;50.882;3.882;2024-01-25T01:54:09;8.60;76.00
85562;DHT22;76005;50.882;3.882;2024-01-25T01:56:35;8.60;75.70
85562;DHT22;76005;50.882;3.882;2024-01-25T01:59:04;8.60;75.80
85562;DHT22;76005;50.882;3.882;2024-01-25T02:01:31;8.60;75.70
85562;DHT22;76005;50.882;3.882;2024-01-25T02:03:57;8.50;75.90
85562;DHT22;76005;50.882;3.882;2024-01-25T02:06:25;8.50;76.40
85562;DHT22;76005;50.882;3.882;2024-01-25T02:08:52;8.40;76.70
85562;DHT22;76005;50.882;3.882;2024-01-25T02:11:19;8.40;76.50
85562;DHT22;76005;50.882;3.882;2024-01-25T02:13:45;8.40;76.50
85562;DHT22;76005;50.882;3.882;2024-01-25T02:16:13;8.40;76.70
85562;DHT22;76005;50.882;3.882;2024-01-25T02:18:41;8.40;76.40
85562;DHT22;76005;50.882;3.882;2024-01-25T02:21:07;8.40;76.50
85562;DHT22;76005;50.882;3.882;2024-01-25T02:23:32;8.40;76.60
85562;DHT22;76005;50.882;3.882;2024-01-25T02:25:58;8.40;76.40
85562;DHT22;76005;50.882;3.882;2024-01-25T02:28:24;8.30;77.10
85562;DHT22;76005;50.882;3.882;2024-01-25T02:30:50;8.30;76.80
85562;DHT22;76005;50.882;3.882;2024-01-25T02:33:15;8.30;77.00
85562;DHT22;76005;50.882;3.882;2024-01-25T02:35:41;8.30;76.90
85562;DHT22;76005;50.882;3.882;2024-01-25T02:38:07;8.20;76.90
85562;DHT22;76005;50.882;3.882;2024-01-25T02:40:33;8.20;76.90
85562;DHT22;76005;50.882;3.882;2024-01-25T02:42:58;8.20;77.30
85562;DHT22;76005;50.882;3.882;2024-01-25T02:45:24;8.20;77.00
85562;DHT22;76005;50.882;3.882;2024-01-25T02:47:50;8.20;76.60
85562;DHT22;76005;50.882;3.882;2024-01-25T02:50:16;8.20;76.70
85562;DHT22;76005;50.882;3.882;2024-01-25T02:52:41;8.20;77.70
85562;DHT22;76005;50.882;3.882;2024-01-25T02:55:07;8.20;76.80
85562;DHT22;76005;50.882;3.882;2024-01-25T02:57:33;8.20;77.10
85562;DHT22;76005;50.882;3.882;2024-01-25T02:59:59;8.10;77.30
85562;DHT22;76005;50.882;3.882;2024-01-25T03:02:25;8.10;77.10
85562;DHT22;76005;50.882;3.882;2024-01-25T03:04:51;8.10;77.10
85562;DHT22;76005;50.882;3.882;2024-01-25T03:07:17;8.10;76.90
85562;DHT22;76005;50.882;3.882;2024-01-25T03:09:42;8.10;77.60
85562;DHT22;76005;50.882;3.882;2024-01-25T03:12:08;8.10;77.70
85562;DHT22;76005;50.882;3.882;2024-01-25T03:14:34;8.10;77.10
85562;DHT22;76005;50.882;3.882;2024-01-25T03:17:00;8.10;77.00
85562;DHT22;76005;50.882;3.882;2024-01-25T03:19:27;8.10;77.00
85562;DHT22;76005;50.882;3.882;2024-01-25T03:21:54;8.00;78.00
85562;DHT22;76005;50.882;3.882;2024-01-25T03:24:23;8.00;77.00
85562;DHT22;76005;50.882;3.882;2024-01-25T03:26:49;8.00;77.10
85562;DHT22;76005;50.882;3.882;2024-01-25T03:29:15;8.00;77.00
85562;DHT22;76005;50.882;3.882;2024-01-25T03:31:41;8.00;76.70
85562;DHT22;76005;50.882;3.882;2024-01-25T03:34:06;8.00;76.50
85562;DHT22;76005;50.882;3.882;2024-01-25T03:36:32;8.00;76.80
85562;DHT22;76005;50.882;3.882;2024-01-25T03:38:58;7.90;76.90
85562;DHT22;76005;50.882;3.882;2024-01-25T03:41:24;7.90;76.70
85562;DHT22;76005;50.882;3.882;2024-01-25T03:43:50;7.90;76.90
85562;DHT22;76005;50.882;3.882;2024-01-25T03:46:17;7.90;76.80
85562;DHT22;76005;50.882;3.882;2024-01-25T03:48:42;7.90;76.80
85562;DHT22;76005;50.882;3.882;2024-01-25T03:51:09;7.90;76.30
85562;DHT22;76005;50.882;3.882;2024-01-25T03:53:34;7.90;76.10
85562;DHT22;76005;50.882;3.882;2024-01-25T03:56:00;7.90;76.40
85562;DHT22;76005;50.882;3.882;2024-01-25T03:58:26;7.80;76.40
85562;DHT22;76005;50.882;3.882;2024-01-25T04:00:51;7.80;76.60
85562;DHT22;76005;50.882;3.882;2024-01-25T04:03:17;7.80;76.60
85562;DHT22;76005;50.882;3.882;2024-01-25T04:05:43;7.80;76.00
85562;DHT22;76005;50.882;3.882;2024-01-25T04:08:08;7.80;75.30
85562;DHT22;76005;50.882;3.882;2024-01-25T04:10:34;7.70;75.40
85562;DHT22;76005;50.882;3.882;2024-01-25T04:13:00;7.70;76.20
85562;DHT22;76005;50.882;3.882;2024-01-25T04:15:26;7.70;76.40
85562;DHT22;76005;50.882;3.882;2024-01-25T04:17:52;7.70;76.60
85562;DHT22;76005;50.882;3.882;2024-01-25T04:20:19;7.70;76.40
85562;DHT22;76005;50.882;3.882;2024-01-25T04:22:45;7.70;76.30
85562;DHT22;76005;50.882;3.882;2024-01-25T04:25:11;7.70;76.50
85562;DHT22;76005;50.882;3.882;2024-01-25T04:27:40;7.70;75.90
85562;DHT22;76005;50.882;3.882;2024-01-25T04:30:07;7.70;74.90
85562;DHT22;76005;50.882;3.882;2024-01-25T04:32:33;7.60;75.70
85562;DHT22;76005;50.882;3.882;2024-01-25T04:34:58;7.60;75.40
85562;DHT22;76005;50.882;3.882;2024-01-25T04:37:24;7.50;75.80
85562;DHT22;76005;50.882;3.882;2024-01-25T04:39:50;7.60;75.60
85562;DHT22;76005;50.882;3.882;2024-01-25T04:42:15;7.60;75.20
85562;DHT22;76005;50.882;3.882;2024-01-25T04:44:41;7.50;74.00
85562;DHT22;76005;50.882;3.882;2024-01-25T04:47:08;7.50;74.50
85562;DHT22;76005;50.882;3.882;2024-01-25T04:49:34;7.50;75.00
85562;DHT22;76005;50.882;3.882;2024-01-25T04:51:59;7.40;74.30
85562;DHT22;76005;50.882;3.882;2024-01-25T04:54:26;7.40;74.40
85562;DHT22;76005;50.882;3.882;2024-01-25T04:56:51;7.40;74.70
85562;DHT22;76005;50.882;3.882;2024-01-25T04:59:17;7.30;74.60
85562;DHT22;76005;50.882;3.882;2024-01-25T05:01:43;7.20;74.60
85562;DHT22;76005;50.882;3.882;2024-01-25T05:04:08;7.20;74.70
85562;DHT22;76005;50.882;3.882;2024-01-25T05:06:34;7.10;75.30
85562;DHT22;76005;50.882;3.882;2024-01-25T05:09:00;7.00;75.90
85562;DHT22;76005;50.882;3.882;2024-01-25T05:11:25;7.00;75.10
85562;DHT22;76005;50.882;3.882;2024-01-25T05:13:51;6.90;74.80
85562;DHT22;76005;50.882;3.882;2024-01-25T05:16:16;6.90;75.60
85562;DHT22;76005;50.882;3.882;2024-01-25T05:18:42;6.90;78.60
85562;DHT22;76005;50.882;3.882;2024-01-25T05:21:08;6.80;78.60
85562;DHT22;76005;50.882;3.882;2024-01-25T05:23:33;7.00;77.40
85562;DHT22;76005;50.882;3.882;2024-01-25T05:26:00;7.10;76.40
85562;DHT22;76005;50.882;3.882;2024-01-25T05:28:26;7.10;75.90
85562;DHT22;76005;50.882;3.882;2024-01-25T05:30:51;7.20;75.00
85562;DHT22;76005;50.882;3.882;2024-01-25T05:33:17;7.10;74.60
85562;DHT22;76005;50.882;3.882;2024-01-25T05:35:42;7.10;75.60
85562;DHT22;76005;50.882;3.882;2024-01-25T05:38:08;7.00;76.40
85562;DHT22;76005;50.882;3.882;2024-01-25T05:40:34;6.90;77.30
85562;DHT22;76005;50.882;3.882;2024-01-25T05:43:00;6.90;76.80
85562;DHT22;76005;50.882;3.882;2024-01-25T05:45:25;6.90;76.10
85562;DHT22;76005;50.882;3.882;2024-01-25T05:47:52;6.60;77.60
85562;DHT22;76005;50.882;3.882;2024-01-25T05:50:18;6.60;78.10
85562;DHT22;76005;50.882;3.882;2024-01-25T05:52:44;6.60;78.30
85562;DHT22;76005;50.882;3.882;2024-01-25T05:55:09;6.70;78.90
85562;DHT22;76005;50.882;3.882;2024-01-25T05:57:36;6.70;78.30
85562;DHT22;76005;50.882;3.882;2024-01-25T06:00:05;6.70;77.80
85562;DHT22;76005;50.882;3.882;2024-01-25T06:02:31;6.40;79.00
85562;DHT22;76005;50.882;3.882;2024-01-25T06:04:57;6.30;80.40
85562;DHT22;76005;50.882;3.882;2024-01-25T06:07:25;6.40;80.30
85562;DHT22;76005;50.882;3.882;2024-01-25T06:09:50;6.50;80.00
85562;DHT22;76005;50.882;3.882;2024-01-25T06:12:16;6.60;80.10
85562;DHT22;76005;50.882;3.882;2024-01-25T06:14:42;6.60;79.80
85562;DHT22;76005;50.882;3.882;2024-01-25T06:17:08;6.70;79.00
85562;DHT22;76005;50.882;3.882;2024-01-25T06:19:34;6.60;79.40
85562;DHT22;76005;50.882;3.882;2024-01-25T06:22:00;6.70;78.80
85562;DHT22;76005;50.882;3.882;2024-01-25T06:24:26;6.60;79.80
85562;DHT22;76005;50.882;3.882;2024-01-25T06:26:53;6.60;79.00
85562;DHT22;76005;50.882;3.882;2024-01-25T06:29:19;6.60;79.40
85562;DHT22;76005;50.882;3.882;2024-01-25T06:31:45;6.70;78.40
85562;DHT22;76005;50.882;3.882;2024-01-25T06:34:11;6.70;78.60
85562;DHT22;76005;50.882;3.882;2024-01-25T06:36:37;6.50;80.00
85562;DHT22;76005;50.882;3.882;2024-01-25T06:39:03;6.30;80.80
85562;DHT22;76005;50.882;3.882;2024-01-25T06:41:30;6.40;80.70
85562;DHT22;76005;50.882;3.882;2024-01-25T06:43:56;6.50;80.40
85562;DHT22;76005;50.882;3.882;2024-01-25T06:46:22;6.50;80.10
85562;DHT22;76005;50.882;3.882;2024-01-25T06:48:50;6.60;79.40
85562;DHT22;76005;50.882;3.882;2024-01-25T06:51:15;6.70;79.20
85562;DHT22;76005;50.882;3.882;2024-01-25T06:53:41;6.80;78.40
85562;DHT22;76005;50.882;3.882;2024-01-25T06:56:07;6.80;78.40
85562;DHT22;76005;50.882;3.882;2024-01-25T06:58:32;6.70;79.20
85562;DHT22;76005;50.882;3.882;2024-01-25T07:00:59;6.60;79.40
85562;DHT22;76005;50.882;3.882;2024-01-25T07:03:25;6.60;79.40
85562;DHT22;76005;50.882;3.882;2024-01-25T07:05:51;6.70;79.30
85562;DHT22;76005;50.882;3.882;2024-01-25T07:08:16;6.70;78.80
85562;DHT22;76005;50.882;3.882;2024-01-25T07:10:43;6.70;78.90
85562;DHT22;76005;50.882;3.882;2024-01-25T07:13:09;6.60;80.40
85562;DHT22;76005;50.882;3.882;2024-01-25T07:15:35;6.60;80.60
85562;DHT22;76005;50.882;3.882;2024-01-25T07:18:00;6.60;80.30
85562;DHT22;76005;50.882;3.882;2024-01-25T07:20:26;6.50;80.60
85562;DHT22;76005;50.882;3.882;2024-01-25T07:22:52;6.40;81.20
85562;DHT22;76005;50.882;3.882;2024-01-25T07:25:17;6.50;81.50
85562;DHT22;76005;50.882;3.882;2024-01-25T07:27:47;6.60;81.10
85562;DHT22;76005;50.882;3.882;2024-01-25T07:30:13;6.70;80.80
85562;DHT22;76005;50.882;3.882;2024-01-25T07:32:39;6.70;80.70
85562;DHT22;76005;50.882;3.882;2024-01-25T07:35:08;6.70;80.40
85562;DHT22;76005;50.882;3.882;2024-01-25T07:37:35;6.60;80.50
85562;DHT22;76005;50.882;3.882;2024-01-25T07:40:01;6.50;80.90
85562;DHT22;76005;50.882;3.882;2024-01-25T07:42:29;6.50;81.50
85562;DHT22;76005;50.882;3.882;2024-01-25T07:44:54;6.30;82.00
85562;DHT22;76005;50.882;3.882;2024-01-25T07:47:20;6.20;82.60
85562;DHT22;76005;50.882;3.882;2024-01-25T07:49:46;6.20;82.80
85562;DHT22;76005;50.882;3.882;2024-01-25T07:52:11;6.10;83.30
85562;DHT22;76005;50.882;3.882;2024-01-25T07:54:37;6.20;83.20
85562;DHT22;76005;50.882;3.882;2024-01-25T07:57:03;6.30;82.80
85562;DHT22;76005;50.882;3.882;2024-01-25T07:59:29;6.30;82.60
85562;DHT22;76005;50.882;3.882;2024-01-25T08:01:54;6.10;83.40
85562;DHT22;76005;50.882;3.882;2024-01-25T08:04:20;6.10;83.80
85562;DHT22;76005;50.882;3.882;2024-01-25T08:06:46;6.20;83.60
85562;DHT22;76005;50.882;3.882;2024-01-25T08:09:11;6.40;83.50
85562;DHT22;76005;50.882;3.882;2024-01-25T08:11:37;6.50;83.10
85562;DHT22;76005;50.882;3.882;2024-01-25T08:14:03;6.60;82.70
85562;DHT22;76005;50.882;3.882;2024-01-25T08:16:29;6.70;82.60
85562;DHT22;76005;50.882;3.882;2024-01-25T08:18:55;6.70;82.60
85562;DHT22;76005;50.882;3.882;2024-01-25T08:21:21;6.90;82.20
85562;DHT22;76005;50.882;3.882;2024-01-25T08:23:46;6.60;82.80
85562;DHT22;76005;50.882;3.882;2024-01-25T08:26:12;6.70;83.30
85562;DHT22;76005;50.882;3.882;2024-01-25T08:28:40;6.60;83.80
85562;DHT22;76005;50.882;3.882;2024-01-25T08:31:05;6.60;83.80
85562;DHT22;76005;50.882;3.882;2024-01-25T08:33:31;6.60;84.00
85562;DHT22;76005;50.882;3.882;2024-01-25T08:35:57;6.60;84.20
85562;DHT22;76005;50.882;3.882;2024-01-25T08:38:23;6.70;84.00
85562;DHT22;76005;50.882;3.882;2024-01-25T08:40:48;6.80;83.90
85562;DHT22;76005;50.882;3.882;2024-01-25T08:43:14;6.80;83.80
85562;DHT22;76005;50.882;3.882;2024-01-25T08:45:40;6.70;84.10
85562;DHT22;76005;50.882;3.882;2024-01-25T08:48:05;6.80;84.30
85562;DHT22;76005;50.882;3.882;2024-01-25T08:50:31;6.80;84.20
85562;DHT22;76005;50.882;3.882;2024-01-25T08:52:58;6.70;84.60
85562;DHT22;76005;50.882;3.882;2024-01-25T08:55:25;6.80;84.80
85562;DHT22;76005;50.882;3.882;2024-01-25T08:57:51;7.00;84.50
85562;DHT22;76005;50.882;3.882;2024-01-25T09:00:16;7.00;84.20
85562;DHT22;76005;50.882;3.882;2024-01-25T09:02:43;7.00;83.80
85562;DHT22;76005;50.882;3.882;2024-01-25T09:05:09;7.00;84.60
85562;DHT22;76005;50.882;3.882;2024-01-25T09:07:35;7.10;84.30
85562;DHT22;76005;50.882;3.882;2024-01-25T09:10:01;7.30;84.00
85562;DHT22;76005;50.882;3.882;2024-01-25T09:12:26;7.20;83.70
85562;DHT22;76005;50.882;3.882;2024-01-25T09:14:52;7.30;84.50
85562;DHT22;76005;50.882;3.882;2024-01-25T09:17:18;7.40;83.60
85562;DHT22;76005;50.882;3.882;2024-01-25T09:19:50;7.70;83.40
85562;DHT22;76005;50.882;3.882;2024-01-25T09:22:17;7.90;82.50
85562;DHT22;76005;50.882;3.882;2024-01-25T09:24:47;7.90;82.00
85562;DHT22;76005;50.882;3.882;2024-01-25T09:27:13;7.90;81.90
85562;DHT22;76005;50.882;3.882;2024-01-25T09:29:40;7.60;83.00
85562;DHT22;76005;50.882;3.882;2024-01-25T09:32:09;7.70;83.30
85562;DHT22;76005;50.882;3.882;2024-01-25T09:34:36;7.70;83.20
85562;DHT22;76005;50.882;3.882;2024-01-25T09:37:02;7.60;83.40
85562;DHT22;76005;50.882;3.882;2024-01-25T09:39:28;7.70;83.90
85562;DHT22;76005;50.882;3.882;2024-01-25T09:41:53;7.70;83.80
85562;DHT22;76005;50.882;3.882;2024-01-25T09:44:20;7.70;84.10
85562;DHT22;76005;50.882;3.882;2024-01-25T09:46:45;7.90;83.60
85562;DHT22;76005;50.882;3.882;2024-01-25T09:49:11;8.00;83.50
85562;DHT22;76005;50.882;3.882;2024-01-25T09:51:38;8.10;83.20
85562;DHT22;76005;50.882;3.882;2024-01-25T09:54:05;8.20;83.20
85562;DHT22;76005;50.882;3.882;2024-01-25T09:56:32;8.30;83.10
85562;DHT22;76005;50.882;3.882;2024-01-25T09:58:58;8.50;82.60
85562;DHT22;76005;50.882;3.882;2024-01-25T10:01:24;8.40;82.60
85562;DHT22;76005;50.882;3.882;2024-01-25T10:03:50;8.40;83.10
85562;DHT22;76005;50.882;3.882;2024-01-25T10:06:16;8.40;84.00
85562;DHT22;76005;50.882;3.882;2024-01-25T10:08:43;8.50;83.40
85562;DHT22;76005;50.882;3.882;2024-01-25T10:11:08;8.60;83.50
85562;DHT22;76005;50.882;3.882;2024-01-25T10:13:41;8.70;83.00
85562;DHT22;76005;50.882;3.882;2024-01-25T10:16:11;8.80;83.00
85562;DHT22;76005;50.882;3.882;2024-01-25T10:18:39;8.80;82.70
85562;DHT22;76005;50.882;3.882;2024-01-25T10:21:05;8.70;83.00
85562;DHT22;76005;50.882;3.882;2024-01-25T10:23:31;8.50;83.90
85562;DHT22;76005;50.882;3.882;2024-01-25T10:25:58;8.60;84.40
85562;DHT22;76005;50.882;3.882;2024-01-25T10:28:24;8.70;84.40
85562;DHT22;76005;50.882;3.882;2024-01-25T10:30:57;8.80;84.00
85562;DHT22;76005;50.882;3.882;2024-01-25T10:33:25;8.80;83.90
85562;DHT22;76005;50.882;3.882;2024-01-25T10:35:54;8.90;83.80
85562;DHT22;76005;50.882;3.882;2024-01-25T10:38:21;9.00;83.60
85562;DHT22;76005;50.882;3.882;2024-01-25T10:40:47;9.00;83.70
85562;DHT22;76005;50.882;3.882;2024-01-25T10:43:13;9.00;83.90
85562;DHT22;76005;50.882;3.882;2024-01-25T10:45:39;9.00;84.20
85562;DHT22;76005;50.882;3.882;2024-01-25T10:48:06;9.00;84.10
85562;DHT22;76005;50.882;3.882;2024-01-25T10:50:32;8.90;84.70
85562;DHT22;76005;50.882;3.882;2024-01-25T10:52:58;8.80;85.10
85562;DHT22;76005;50.882;3.882;2024-01-25T10:55:25;9.00;85.10
85562;DHT22;76005;50.882;3.882;2024-01-25T10:57:51;9.10;84.90
85562;DHT22;76005;50.882;3.882;2024-01-25T11:00:18;9.20;84.50
85562;DHT22;76005;50.882;3.882;2024-01-25T11:02:45;9.10;85.00
85562;DHT22;76005;50.882;3.882;2024-01-25T11:05:12;9.20;85.60
85562;DHT22;76005;50.882;3.882;2024-01-25T11:07:56;9.40;84.60
85562;DHT22;76005;50.882;3.882;2024-01-25T11:10:24;9.50;84.60
85562;DHT22;76005;50.882;3.882;2024-01-25T11:12:57;9.40;84.20
85562;DHT22;76005;50.882;3.882;2024-01-25T11:15:29;9.50;84.30
85562;DHT22;76005;50.882;3.882;2024-01-25T11:17:55;9.50;84.20
85562;DHT22;76005;50.882;3.882;2024-01-25T11:20:26;9.40;84.20
85562;DHT22;76005;50.882;3.882;2024-01-25T11:23:00;9.40;84.80
85562;DHT22;76005;50.882;3.882;2024-01-25T11:25:34;9.40;84.90
85562;DHT22;76005;50.882;3.882;2024-01-25T11:28:01;9.40;85.00
85562;DHT22;76005;50.882;3.882;2024-01-25T11:30:29;9.50;84.90
85562;DHT22;76005;50.882;3.882;2024-01-25T11:32:55;9.50;84.60
85562;DHT22;76005;50.882;3.882;2024-01-25T11:35:21;9.60;84.40
85562;DHT22;76005;50.882;3.882;2024-01-25T11:37:48;9.60;84.10
85562;DHT22;76005;50.882;3.882;2024-01-25T11:40:15;9.50;84.40
85562;DHT22;76005;50.882;3.882;2024-01-25T11:42:45;9.60;84.50
85562;DHT22;76005;50.882;3.882;2024-01-25T11:45:11;9.70;84.50
85562;DHT22;76005;50.882;3.882;2024-01-25T11:47:38;9.80;84.30
85562;DHT22;76005;50.882;3.882;2024-01-25T11:50:05;9.80;83.90
85562;DHT22;76005;50.882;3.882;2024-01-25T11:52:32;9.80;84.40
85562;DHT22;76005;50.882;3.882;2024-01-25T11:55:06;9.90;84.30
85562;DHT22;76005;50.882;3.882;2024-01-25T11:57:38;10.00;84.20
85562;DHT22;76005;50.882;3.882;2024-01-25T12:00:05;10.10;83.40
85562;DHT22;76005;50.882;3.882;2024-01-25T12:02:32;10.00;83.40
85562;DHT22;76005;50.882;3.882;2024-01-25T12:04:58;9.90;84.40
85562;DHT22;76005;50.882;3.882;2024-01-25T12:07:24;9.70;85.40
85562;DHT22;76005;50.882;3.882;2024-01-25T12:10:06;9.80;85.40
85562;DHT22;76005;50.882;3.882;2024-01-25T12:12:32;9.90;84.70
85562;DHT22;76005;50.882;3.882;2024-01-25T12:14:59;9.80;85.30
85562;DHT22;76005;50.882;3.882;2024-01-25T12:17:31;9.80;85.70
85562;DHT22;76005;50.882;3.882;2024-01-25T12:19:57;9.80;85.60
85562;DHT22;76005;50.882;3.882;2024-01-25T12:22:24;9.80;86.00
85562;DHT22;76005;50.882;3.882;2024-01-25T12:24:56;9.80;86.20
85562;DHT22;76005;50.882;3.882;2024-01-25T12:27:22;9.80;86.50
85562;DHT22;76005;50.882;3.882;2024-01-25T12:29:49;10.00;85.90
85562;DHT22;76005;50.882;3.882;2024-01-25T12:32:15;10.10;85.90
85562;DHT22;76005;50.882;3.882;2024-01-25T12:34:40;10.10;85.70
85562;DHT22;76005;50.882;3.882;2024-01-25T12:37:07;10.00;85.70
85562;DHT22;76005;50.882;3.882;2024-01-25T12:39:33;10.00;86.40
85562;DHT22;76005;50.882;3.882;2024-01-25T12:41:59;10.10;86.30
85562;DHT22;76005;50.882;3.882;2024-01-25T12:44:25;10.10;86.00
85562;DHT22;76005;50.882;3.882;2024-01-25T12:46:51;10.30;86.00
85562;DHT22;76005;50.882;3.882;2024-01-25T12:49:17;10.40;85.70
85562;DHT22;76005;50.882;3.882;2024-01-25T12:51:43;10.30;84.80
85562;DHT22;76005;50.882;3.882;2024-01-25T12:54:10;10.30;85.40
85562;DHT22;76005;50.882;3.882;2024-01-25T12:56:35;10.30;84.90
85562;DHT22;76005;50.882;3.882;2024-01-25T12:59:01;10.40;85.70
85562;DHT22;76005;50.882;3.882;2024-01-25T13:01:27;10.40;85.40
85562;DHT22;76005;50.882;3.882;2024-01-25T13:03:53;10.30;85.50
85562;DHT22;76005;50.882;3.882;2024-01-25T13:06:18;10.40;85.50
85562;DHT22;76005;50.882;3.882;2024-01-25T13:08:44;10.40;85.70
85562;DHT22;76005;50.882;3.882;2024-01-25T13:11:12;10.50;85.80
85562;DHT22;76005;50.882;3.882;2024-01-25T13:13:37;10.60;85.60
85562;DHT22;76005;50.882;3.882;2024-01-25T13:16:03;10.70;85.20
85562;DHT22;76005;50.882;3.882;2024-01-25T13:18:29;10.60;85.40
85562;DHT22;76005;50.882;3.882;2024-01-25T13:20:55;10.60;85.30
85562;DHT22;76005;50.882;3.882;2024-01-25T13:23:21;10.60;85.60
85562;DHT22;76005;50.882;3.882;2024-01-25T13:25:46;10.60;85.70
85562;DHT22;76005;50.882;3.882;2024-01-25T13:28:12;10.70;85.40
85562;DHT22;76005;50.882;3.882;2024-01-25T13:30:38;10.80;85.20
85562;DHT22;76005;50.882;3.882;2024-01-25T13:33:03;10.90;84.90
85562;DHT22;76005;50.882;3.882;2024-01-25T13:35:29;10.90;84.40
85562;DHT22;76005;50.882;3.882;2024-01-25T13:37:55;11.00;84.40
85562;DHT22;76005;50.882;3.882;2024-01-25T13:40:26;10.90;85.00
85562;DHT22;76005;50.882;3.882;2024-01-25T13:42:52;11.00;84.70
85562;DHT22;76005;50.882;3.882;2024-01-25T13:45:18;10.80;85.00
85562;DHT22;76005;50.882;3.882;2024-01-25T13:47:44;10.80;85.50
85562;DHT22;76005;50.882;3.882;2024-01-25T13:50:09;10.80;85.60
85562;DHT22;76005;50.882;3.882;2024-01-25T13:52:35;10.90;85.00
85562;DHT22;76005;50.882;3.882;2024-01-25T13:55:01;10.90;84.90
85562;DHT22;76005;50.882;3.882;2024-01-25T13:57:26;10.90;85.10
85562;DHT22;76005;50.882;3.882;2024-01-25T13:59:52;10.90;85.10
85562;DHT22;76005;50.882;3.882;2024-01-25T14:02:18;10.90;85.30
85562;DHT22;76005;50.882;3.882;2024-01-25T14:04:43;10.90;85.30
85562;DHT22;76005;50.882;3.882;2024-01-25T14:07:09;10.90;85.30
85562;DHT22;76005;50.882;3.882;2024-01-25T14:09:35;11.10;85.00
85562;DHT22;76005;50.882;3.882;2024-01-25T14:12:00;11.10;84.90
85562;DHT22;76005;50.882;3.882;2024-01-25T14:14:26;11.20;84.90
85562;DHT22;76005;50.882;3.882;2024-01-25T14:16:52;11.00;85.00
85562;DHT22;76005;50.882;3.882;2024-01-25T14:19:17;11.00;85.40
85562;DHT22;76005;50.882;3.882;2024-01-25T14:21:46;10.90;85.50
85562;DHT22;76005;50.882;3.882;2024-01-25T14:24:12;10.80;85.90
85562;DHT22;76005;50.882;3.882;2024-01-25T14:26:38;10.80;86.20
85562;DHT22;76005;50.882;3.882;2024-01-25T14:29:04;10.90;86.00
85562;DHT22;76005;50.882;3.882;2024-01-25T14:31:30;10.90;85.90
85562;DHT22;76005;50.882;3.882;2024-01-25T14:33:55;11.00;85.60
85562;DHT22;76005;50.882;3.882;2024-01-25T14:36:21;11.00;85.40
85562;DHT22;76005;50.882;3.882;2024-01-25T14:38:47;11.10;85.40
85562;DHT22;76005;50.882;3.882;2024-01-25T14:41:12;11.00;85.50
85562;DHT22;76005;50.882;3.882;2024-01-25T14:43:38;11.00;86.00
85562;DHT22;76005;50.882;3.882;2024-01-25T14:46:06;11.00;86.10
85562;DHT22;76005;50.882;3.882;2024-01-25T14:48:32;11.00;86.20
85562;DHT22;76005;50.882;3.882;2024-01-25T14:50:57;11.10;86.00
85562;DHT22;76005;50.882;3.882;2024-01-25T14:53:23;11.20;85.80
85562;DHT22;76005;50.882;3.882;2024-01-25T14:55:49;11.20;85.20
85562;DHT22;76005;50.882;3.882;2024-01-25T14:58:15;11.30;85.10
85562;DHT22;76005;50.882;3.882;2024-01-25T15:00:48;11.40;85.10
85562;DHT22;76005;50.882;3.882;2024-01-25T15:03:14;11.40;84.70
85562;DHT22;76005;50.882;3.882;2024-01-25T15:05:40;11.40;84.60
85562;DHT22;76005;50.882;3.882;2024-01-25T15:08:06;11.40;84.80
85562;DHT22;76005;50.882;3.882;2024-01-25T15:10:31;11.40;84.80
85562;DHT22;76005;50.882;3.882;2024-01-25T15:12:57;11.30;85.10
85562;DHT22;76005;50.882;3.882;2024-01-25T15:15:25;11.30;85.20
85562;DHT22;76005;50.882;3.882;2024-01-25T15:17:54;11.30;85.20
85562;DHT22;76005;50.882;3.882;2024-01-25T15:20:21;11.30;85.40
85562;DHT22;76005;50.882;3.882;2024-01-25T15:22:47;11.40;85.10
85562;DHT22;76005;50.882;3.882;2024-01-25T15:25:13;11.30;85.10
85562;DHT22;76005;50.882;3.882;2024-01-25T15:27:39;11.30;85.30
85562;DHT22;76005;50.882;3.882;2024-01-25T15:30:05;11.30;85.40
85562;DHT22;76005;50.882;3.882;2024-01-25T15:32:31;11.40;85.10
85562;DHT22;76005;50.882;3.882;2024-01-25T15:34:57;11.20;85.50
85562;DHT22;76005;50.882;3.882;2024-01-25T15:37:23;11.20;85.70